sensor_id;sensor_type;location;lat;lon;timestamp;P1;P2;P0
55754;PMS5003;41674;52.290;-1.474;2022-12-18T00:00:31;39;31;
55754;PMS5003;41674;52.290;-1.474;2022-12-18T00:03:01;35;31;
55754;PMS5003;41674;52.290;-1.474;2022-12-18T00:05:31;36;33;
55754;PMS5003;41674;52.290;-1.474;2022-12-18T00:08:01;35;29;
55754;PMS5003;41674;52.290;-1.474;2022-12-18T00:10:30;34;29;
55754;PMS5003;41674;52.290;-1.474;2022-12-18T00:13:00;32;29;
55754;PMS5003;41674;52.290;-1.474;2022-12-18T00:15:29;36;31;
55754;PMS5003;41674;52.290;-1.474;2022-12-18T00:17:59;32;27;
55754;PMS5003;41674;52.290;-1.474;2022-12-18T00:20:35;33;28;
55754;PMS5003;41674;52.290;-1.474;2022-12-18T00:22:58;33;30;
55754;PMS5003;41674;52.290;-1.474;2022-12-18T00:25:28;34;30;
55754;PMS5003;41674;52.290;-1.474;2022-12-18T00:27:57;37;34;
55754;PMS5003;41674;52.290;-1.474;2022-12-18T00:30:27;32;30;
55754;PMS5003;41674;52.290;-1.474;2022-12-18T00:32:57;34;32;
55754;PMS5003;41674;52.290;-1.474;2022-12-18T00:35:26;35;32;
55754;PMS5003;41674;52.290;-1.474;2022-12-18T00:37:55;38;31;
55754;PMS5003;41674;52.290;-1.474;2022-12-18T00:40:25;38;33;
55754;PMS5003;41674;52.290;-1.474;2022-12-18T00:42:54;31;28;
55754;PMS5003;41674;52.290;-1.474;2022-12-18T00:45:24;28;25;
55754;PMS5003;41674;52.290;-1.474;2022-12-18T00:47:54;33;29;
55754;PMS5003;41674;52.290;-1.474;2022-12-18T00:50:24;32;31;
55754;PMS5003;41674;52.290;-1.474;2022-12-18T00:52:52;36;33;
55754;PMS5003;41674;52.290;-1.474;2022-12-18T00:55:22;32;30;
55754;PMS5003;41674;52.290;-1.474;2022-12-18T00:57:51;33;28;
55754;PMS5003;41674;52.290;-1.474;2022-12-18T01:00:20;40;37;
55754;PMS5003;41674;52.290;-1.474;2022-12-18T01:02:49;36;31;
55754;PMS5003;41674;52.290;-1.474;2022-12-18T01:07:48;39;37;
55754;PMS5003;41674;52.290;-1.474;2022-12-18T01:10:18;44;33;
55754;PMS5003;41674;52.290;-1.474;2022-12-18T01:12:47;39;37;
55754;PMS5003;41674;52.290;-1.474;2022-12-18T01:15:17;42;38;
55754;PMS5003;41674;52.290;-1.474;2022-12-18T01:17:47;42;34;
55754;PMS5003;41674;52.290;-1.474;2022-12-18T01:20:15;43;38;
55754;PMS5003;41674;52.290;-1.474;2022-12-18T01:22:45;36;34;
55754;PMS5003;41674;52.290;-1.474;2022-12-18T01:25:15;47;39;
55754;PMS5003;41674;52.290;-1.474;2022-12-18T01:27:44;46;39;
55754;PMS5003;41674;52.290;-1.474;2022-12-18T01:30:14;37;32;
55754;PMS5003;41674;52.290;-1.474;2022-12-18T01:32:43;36;31;
55754;PMS5003;41674;52.290;-1.474;2022-12-18T01:35:13;37;33;
55754;PMS5003;41674;52.290;-1.474;2022-12-18T01:37:42;45;36;
55754;PMS5003;41674;52.290;-1.474;2022-12-18T01:40:12;42;36;
55754;PMS5003;41674;52.290;-1.474;2022-12-18T01:42:41;34;32;
55754;PMS5003;41674;52.290;-1.474;2022-12-18T01:47:41;39;34;
55754;PMS5003;41674;52.290;-1.474;2022-12-18T01:50:10;42;36;
55754;PMS5003;41674;52.290;-1.474;2022-12-18T01:52:39;46;38;
55754;PMS5003;41674;52.290;-1.474;2022-12-18T01:55:08;44;42;
55754;PMS5003;41674;52.290;-1.474;2022-12-18T01:57:38;38;34;
55754;PMS5003;41674;52.290;-1.474;2022-12-18T02:00:09;47;39;
55754;PMS5003;41674;52.290;-1.474;2022-12-18T02:02:36;36;30;
55754;PMS5003;41674;52.290;-1.474;2022-12-18T02:05:06;36;32;
55754;PMS5003;41674;52.290;-1.474;2022-12-18T02:07:38;48;41;
55754;PMS5003;41674;52.290;-1.474;2022-12-18T02:10:06;38;35;
55754;PMS5003;41674;52.290;-1.474;2022-12-18T02:12:36;48;37;
55754;PMS5003;41674;52.290;-1.474;2022-12-18T02:15:05;40;32;
55754;PMS5003;41674;52.290;-1.474;2022-12-18T02:17:33;45;43;
55754;PMS5003;41674;52.290;-1.474;2022-12-18T02:20:04;42;38;
55754;PMS5003;41674;52.290;-1.474;2022-12-18T02:22:34;46;39;
55754;PMS5003;41674;52.290;-1.474;2022-12-18T02:25:05;50;41;
55754;PMS5003;41674;52.290;-1.474;2022-12-18T02:27:30;51;40;
55754;PMS5003;41674;52.290;-1.474;2022-12-18T02:29:59;51;43;
55754;PMS5003;41674;52.290;-1.474;2022-12-18T02:32:30;53;41;
55754;PMS5003;41674;52.290;-1.474;2022-12-18T02:34:58;50;41;
55754;PMS5003;41674;52.290;-1.474;2022-12-18T02:37:28;50;40;
55754;PMS5003;41674;52.290;-1.474;2022-12-18T02:39:57;52;39;
55754;PMS5003;41674;52.290;-1.474;2022-12-18T02:42:26;52;42;
55754;PMS5003;41674;52.290;-1.474;2022-12-18T02:44:56;46;39;
55754;PMS5003;41674;52.290;-1.474;2022-12-18T02:47:26;47;38;
55754;PMS5003;41674;52.290;-1.474;2022-12-18T02:49:57;47;40;
55754;PMS5003;41674;52.290;-1.474;2022-12-18T02:52:26;51;37;
55754;PMS5003;41674;52.290;-1.474;2022-12-18T02:54:55;45;39;
55754;PMS5003;41674;52.290;-1.474;2022-12-18T02:57:24;41;34;
55754;PMS5003;41674;52.290;-1.474;2022-12-18T02:59:56;42;36;
55754;PMS5003;41674;52.290;-1.474;2022-12-18T03:02:22;41;37;
55754;PMS5003;41674;52.290;-1.474;2022-12-18T03:04:53;37;34;
55754;PMS5003;41674;52.290;-1.474;2022-12-18T03:07:23;40;37;
55754;PMS5003;41674;52.290;-1.474;2022-12-18T03:09:50;41;36;
55754;PMS5003;41674;52.290;-1.474;2022-12-18T03:12:21;44;34;
55754;PMS5003;41674;52.290;-1.474;2022-12-18T03:14:49;43;37;
55754;PMS5003;41674;52.290;-1.474;2022-12-18T03:17:19;47;35;
55754;PMS5003;41674;52.290;-1.474;2022-12-18T03:19:48;45;36;
55754;PMS5003;41674;52.290;-1.474;2022-12-18T03:22:18;40;37;
55754;PMS5003;41674;52.290;-1.474;2022-12-18T03:24:47;46;37;
55754;PMS5003;41674;52.290;-1.474;2022-12-18T03:27:18;39;33;
55754;PMS5003;41674;52.290;-1.474;2022-12-18T03:29:47;40;35;
55754;PMS5003;41674;52.290;-1.474;2022-12-18T03:32:17;47;43;
55754;PMS5003;41674;52.290;-1.474;2022-12-18T03:34:45;45;37;
55754;PMS5003;41674;52.290;-1.474;2022-12-18T03:37:14;45;37;
55754;PMS5003;41674;52.290;-1.474;2022-12-18T03:39:44;38;32;
55754;PMS5003;41674;52.290;-1.474;2022-12-18T03:42:15;44;41;
55754;PMS5003;41674;52.290;-1.474;2022-12-18T03:44:44;47;42;
55754;PMS5003;41674;52.290;-1.474;2022-12-18T03:47:13;50;39;
55754;PMS5003;41674;52.290;-1.474;2022-12-18T03:49:44;50;42;
55754;PMS5003;41674;52.290;-1.474;2022-12-18T03:52:13;41;36;
55754;PMS5003;41674;52.290;-1.474;2022-12-18T03:54:41;46;39;
55754;PMS5003;41674;52.290;-1.474;2022-12-18T03:57:11;51;46;
55754;PMS5003;41674;52.290;-1.474;2022-12-18T03:59:40;43;40;
55754;PMS5003;41674;52.290;-1.474;2022-12-18T04:02:10;45;37;
55754;PMS5003;41674;52.290;-1.474;2022-12-18T04:04:40;46;38;
55754;PMS5003;41674;52.290;-1.474;2022-12-18T04:07:09;53;40;
55754;PMS5003;41674;52.290;-1.474;2022-12-18T04:09:38;53;44;
55754;PMS5003;41674;52.290;-1.474;2022-12-18T04:12:08;54;42;
55754;PMS5003;41674;52.290;-1.474;2022-12-18T04:14:36;49;42;
55754;PMS5003;41674;52.290;-1.474;2022-12-18T04:17:06;49;44;
55754;PMS5003;41674;52.290;-1.474;2022-12-18T04:19:35;53;43;
55754;PMS5003;41674;52.290;-1.474;2022-12-18T04:22:05;66;49;
55754;PMS5003;41674;52.290;-1.474;2022-12-18T04:24:34;53;45;
55754;PMS5003;41674;52.290;-1.474;2022-12-18T04:27:04;60;53;
55754;PMS5003;41674;52.290;-1.474;2022-12-18T04:29:33;54;48;
55754;PMS5003;41674;52.290;-1.474;2022-12-18T04:32:02;62;51;
55754;PMS5003;41674;52.290;-1.474;2022-12-18T04:34:32;57;46;
55754;PMS5003;41674;52.290;-1.474;2022-12-18T04:37:01;55;48;
55754;PMS5003;41674;52.290;-1.474;2022-12-18T04:39:30;63;48;
55754;PMS5003;41674;52.290;-1.474;2022-12-18T04:42:00;67;53;
55754;PMS5003;41674;52.290;-1.474;2022-12-18T04:44:29;68;57;
55754;PMS5003;41674;52.290;-1.474;2022-12-18T04:46:59;56;47;
55754;PMS5003;41674;52.290;-1.474;2022-12-18T04:49:28;51;45;
55754;PMS5003;41674;52.290;-1.474;2022-12-18T04:51:58;66;53;
55754;PMS5003;41674;52.290;-1.474;2022-12-18T04:54:27;61;54;
55754;PMS5003;41674;52.290;-1.474;2022-12-18T04:56:56;64;55;
55754;PMS5003;41674;52.290;-1.474;2022-12-18T04:59:25;61;53;
55754;PMS5003;41674;52.290;-1.474;2022-12-18T05:01:55;60;50;
55754;PMS5003;41674;52.290;-1.474;2022-12-18T05:04:24;71;59;
55754;PMS5003;41674;52.290;-1.474;2022-12-18T05:06:54;66;55;
55754;PMS5003;41674;52.290;-1.474;2022-12-18T05:09:23;68;51;
55754;PMS5003;41674;52.290;-1.474;2022-12-18T05:11:52;59;53;
55754;PMS5003;41674;52.290;-1.474;2022-12-18T05:14:22;56;45;
55754;PMS5003;41674;52.290;-1.474;2022-12-18T05:16:52;61;47;
55754;PMS5003;41674;52.290;-1.474;2022-12-18T05:19:21;64;50;
55754;PMS5003;41674;52.290;-1.474;2022-12-18T05:21:50;65;51;
55754;PMS5003;41674;52.290;-1.474;2022-12-18T05:24:20;60;53;
55754;PMS5003;41674;52.290;-1.474;2022-12-18T05:26:49;59;48;
55754;PMS5003;41674;52.290;-1.474;2022-12-18T05:29:19;61;53;
55754;PMS5003;41674;52.290;-1.474;2022-12-18T05:31:48;58;49;
55754;PMS5003;41674;52.290;-1.474;2022-12-18T05:34:17;57;43;
55754;PMS5003;41674;52.290;-1.474;2022-12-18T05:36:47;53;48;
55754;PMS5003;41674;52.290;-1.474;2022-12-18T05:39:17;56;48;
55754;PMS5003;41674;52.290;-1.474;2022-12-18T05:41:46;54;43;
55754;PMS5003;41674;52.290;-1.474;2022-12-18T05:44:15;60;51;
55754;PMS5003;41674;52.290;-1.474;2022-12-18T05:46:44;58;48;
55754;PMS5003;41674;52.290;-1.474;2022-12-18T05:49:14;58;48;
55754;PMS5003;41674;52.290;-1.474;2022-12-18T05:51:43;53;43;
55754;PMS5003;41674;52.290;-1.474;2022-12-18T05:54:13;51;47;
55754;PMS5003;41674;52.290;-1.474;2022-12-18T05:56:43;58;45;
55754;PMS5003;41674;52.290;-1.474;2022-12-18T05:59:12;57;46;
55754;PMS5003;41674;52.290;-1.474;2022-12-18T06:01:42;61;51;
55754;PMS5003;41674;52.290;-1.474;2022-12-18T06:04:11;61;52;
55754;PMS5003;41674;52.290;-1.474;2022-12-18T06:06:40;59;44;
55754;PMS5003;41674;52.290;-1.474;2022-12-18T06:09:10;57;45;
55754;PMS5003;41674;52.290;-1.474;2022-12-18T06:11:40;54;48;
55754;PMS5003;41674;52.290;-1.474;2022-12-18T06:14:09;57;44;
55754;PMS5003;41674;52.290;-1.474;2022-12-18T06:16:39;53;47;
55754;PMS5003;41674;52.290;-1.474;2022-12-18T06:19:13;66;53;
55754;PMS5003;41674;52.290;-1.474;2022-12-18T06:21:42;64;49;
55754;PMS5003;41674;52.290;-1.474;2022-12-18T06:24:08;55;50;
55754;PMS5003;41674;52.290;-1.474;2022-12-18T06:26:38;64;54;
55754;PMS5003;41674;52.290;-1.474;2022-12-18T06:29:08;58;50;
55754;PMS5003;41674;52.290;-1.474;2022-12-18T06:31:37;56;45;
55754;PMS5003;41674;52.290;-1.474;2022-12-18T06:34:07;55;49;
55754;PMS5003;41674;52.290;-1.474;2022-12-18T06:36:36;56;47;
55754;PMS5003;41674;52.290;-1.474;2022-12-18T06:39:06;62;48;
55754;PMS5003;41674;52.290;-1.474;2022-12-18T06:41:35;62;43;
55754;PMS5003;41674;52.290;-1.474;2022-12-18T06:44:04;48;43;
55754;PMS5003;41674;52.290;-1.474;2022-12-18T06:46:34;53;47;
55754;PMS5003;41674;52.290;-1.474;2022-12-18T06:49:03;57;48;
55754;PMS5003;41674;52.290;-1.474;2022-12-18T06:51:33;53;45;
55754;PMS5003;41674;52.290;-1.474;2022-12-18T06:54:02;50;37;
55754;PMS5003;41674;52.290;-1.474;2022-12-18T06:56:31;52;42;
55754;PMS5003;41674;52.290;-1.474;2022-12-18T06:59:00;49;39;
55754;PMS5003;41674;52.290;-1.474;2022-12-18T07:01:30;53;44;
55754;PMS5003;41674;52.290;-1.474;2022-12-18T07:03:59;49;40;
55754;PMS5003;41674;52.290;-1.474;2022-12-18T07:06:28;45;42;
55754;PMS5003;41674;52.290;-1.474;2022-12-18T07:08:57;45;34;
55754;PMS5003;41674;52.290;-1.474;2022-12-18T07:11:27;50;41;
55754;PMS5003;41674;52.290;-1.474;2022-12-18T07:13:57;42;34;
55754;PMS5003;41674;52.290;-1.474;2022-12-18T07:16:26;43;35;
55754;PMS5003;41674;52.290;-1.474;2022-12-18T07:18:56;46;38;
55754;PMS5003;41674;52.290;-1.474;2022-12-18T07:21:25;42;33;
55754;PMS5003;41674;52.290;-1.474;2022-12-18T07:23:54;53;39;
55754;PMS5003;41674;52.290;-1.474;2022-12-18T07:26:24;49;39;
55754;PMS5003;41674;52.290;-1.474;2022-12-18T07:28:54;36;32;
55754;PMS5003;41674;52.290;-1.474;2022-12-18T07:31:25;44;39;
55754;PMS5003;41674;52.290;-1.474;2022-12-18T07:33:53;49;39;
55754;PMS5003;41674;52.290;-1.474;2022-12-18T07:36:23;48;37;
55754;PMS5003;41674;52.290;-1.474;2022-12-18T07:38:53;44;37;
55754;PMS5003;41674;52.290;-1.474;2022-12-18T07:41:22;46;37;
55754;PMS5003;41674;52.290;-1.474;2022-12-18T07:43:51;43;37;
55754;PMS5003;41674;52.290;-1.474;2022-12-18T07:46:20;50;36;
55754;PMS5003;41674;52.290;-1.474;2022-12-18T07:48:50;42;31;
55754;PMS5003;41674;52.290;-1.474;2022-12-18T07:51:20;39;36;
55754;PMS5003;41674;52.290;-1.474;2022-12-18T07:53:49;43;32;
55754;PMS5003;41674;52.290;-1.474;2022-12-18T07:56:18;44;34;
55754;PMS5003;41674;52.290;-1.474;2022-12-18T07:58:48;40;34;
55754;PMS5003;41674;52.290;-1.474;2022-12-18T08:01:17;39;35;
55754;PMS5003;41674;52.290;-1.474;2022-12-18T08:03:46;42;36;
55754;PMS5003;41674;52.290;-1.474;2022-12-18T08:06:16;50;38;
55754;PMS5003;41674;52.290;-1.474;2022-12-18T08:08:45;39;34;
55754;PMS5003;41674;52.290;-1.474;2022-12-18T08:11:14;48;40;
55754;PMS5003;41674;52.290;-1.474;2022-12-18T08:13:44;47;37;
55754;PMS5003;41674;52.290;-1.474;2022-12-18T08:16:13;40;34;
55754;PMS5003;41674;52.290;-1.474;2022-12-18T08:18:43;42;36;
55754;PMS5003;41674;52.290;-1.474;2022-12-18T08:21:13;45;36;
55754;PMS5003;41674;52.290;-1.474;2022-12-18T08:23:42;48;37;
55754;PMS5003;41674;52.290;-1.474;2022-12-18T08:26:12;43;33;
55754;PMS5003;41674;52.290;-1.474;2022-12-18T08:28:41;44;37;
55754;PMS5003;41674;52.290;-1.474;2022-12-18T08:31:11;44;37;
55754;PMS5003;41674;52.290;-1.474;2022-12-18T08:33:40;35;33;
55754;PMS5003;41674;52.290;-1.474;2022-12-18T08:36:09;34;33;
55754;PMS5003;41674;52.290;-1.474;2022-12-18T08:38:39;43;36;
55754;PMS5003;41674;52.290;-1.474;2022-12-18T08:41:09;42;36;
55754;PMS5003;41674;52.290;-1.474;2022-12-18T08:43:38;50;40;
55754;PMS5003;41674;52.290;-1.474;2022-12-18T08:46:07;38;32;
55754;PMS5003;41674;52.290;-1.474;2022-12-18T08:48:36;39;33;
55754;PMS5003;41674;52.290;-1.474;2022-12-18T08:51:05;42;36;
55754;PMS5003;41674;52.290;-1.474;2022-12-18T08:53:35;39;36;
55754;PMS5003;41674;52.290;-1.474;2022-12-18T08:56:04;42;35;
55754;PMS5003;41674;52.290;-1.474;2022-12-18T08:58:34;35;32;
55754;PMS5003;41674;52.290;-1.474;2022-12-18T09:01:09;46;36;
55754;PMS5003;41674;52.290;-1.474;2022-12-18T09:03:33;32;29;
55754;PMS5003;41674;52.290;-1.474;2022-12-18T09:06:02;40;35;
55754;PMS5003;41674;52.290;-1.474;2022-12-18T09:08:31;44;34;
55754;PMS5003;41674;52.290;-1.474;2022-12-18T09:11:01;40;31;
55754;PMS5003;41674;52.290;-1.474;2022-12-18T09:13:30;35;30;
55754;PMS5003;41674;52.290;-1.474;2022-12-18T09:15:59;35;32;
55754;PMS5003;41674;52.290;-1.474;2022-12-18T09:18:28;38;30;
55754;PMS5003;41674;52.290;-1.474;2022-12-18T09:20:58;41;36;
55754;PMS5003;41674;52.290;-1.474;2022-12-18T09:23:27;40;32;
55754;PMS5003;41674;52.290;-1.474;2022-12-18T09:25:58;39;31;
55754;PMS5003;41674;52.290;-1.474;2022-12-18T09:28:27;37;32;
55754;PMS5003;41674;52.290;-1.474;2022-12-18T09:30:56;40;33;
55754;PMS5003;41674;52.290;-1.474;2022-12-18T09:33:25;45;35;
55754;PMS5003;41674;52.290;-1.474;2022-12-18T09:35:54;32;30;
55754;PMS5003;41674;52.290;-1.474;2022-12-18T09:38:23;37;32;
55754;PMS5003;41674;52.290;-1.474;2022-12-18T09:40:53;40;30;
55754;PMS5003;41674;52.290;-1.474;2022-12-18T09:43:24;33;32;
55754;PMS5003;41674;52.290;-1.474;2022-12-18T09:45:58;38;33;
55754;PMS5003;41674;52.290;-1.474;2022-12-18T09:48:28;33;29;
55754;PMS5003;41674;52.290;-1.474;2022-12-18T09:50:57;36;32;
55754;PMS5003;41674;52.290;-1.474;2022-12-18T09:53:22;39;33;
55754;PMS5003;41674;52.290;-1.474;2022-12-18T09:55:55;32;29;
55754;PMS5003;41674;52.290;-1.474;2022-12-18T09:58:24;34;32;
55754;PMS5003;41674;52.290;-1.474;2022-12-18T10:00:55;39;35;
55754;PMS5003;41674;52.290;-1.474;2022-12-18T10:03:19;33;28;
55754;PMS5003;41674;52.290;-1.474;2022-12-18T10:05:52;36;32;
55754;PMS5003;41674;52.290;-1.474;2022-12-18T10:08:20;38;34;
55754;PMS5003;41674;52.290;-1.474;2022-12-18T10:10:48;37;32;
55754;PMS5003;41674;52.290;-1.474;2022-12-18T10:13:22;34;29;
55754;PMS5003;41674;52.290;-1.474;2022-12-18T10:15:51;38;36;
55754;PMS5003;41674;52.290;-1.474;2022-12-18T10:18:20;43;34;
55754;PMS5003;41674;52.290;-1.474;2022-12-18T10:20:47;42;36;
55754;PMS5003;41674;52.290;-1.474;2022-12-18T10:23:17;43;37;
55754;PMS5003;41674;52.290;-1.474;2022-12-18T10:25:47;42;36;
55754;PMS5003;41674;52.290;-1.474;2022-12-18T10:28:20;47;34;
55754;PMS5003;41674;52.290;-1.474;2022-12-18T10:30:44;46;37;
55754;PMS5003;41674;52.290;-1.474;2022-12-18T10:33:14;42;35;
55754;PMS5003;41674;52.290;-1.474;2022-12-18T10:35:43;47;35;
55754;PMS5003;41674;52.290;-1.474;2022-12-18T10:38:20;46;39;
55754;PMS5003;41674;52.290;-1.474;2022-12-18T10:40:48;43;37;
55754;PMS5003;41674;52.290;-1.474;2022-12-18T10:43:12;45;39;
55754;PMS5003;41674;52.290;-1.474;2022-12-18T10:45:41;44;34;
55754;PMS5003;41674;52.290;-1.474;2022-12-18T10:48:18;40;37;
55754;PMS5003;41674;52.290;-1.474;2022-12-18T10:50:46;40;35;
55754;PMS5003;41674;52.290;-1.474;2022-12-18T10:53:13;43;39;
55754;PMS5003;41674;52.290;-1.474;2022-12-18T10:55:39;41;36;
55754;PMS5003;41674;52.290;-1.474;2022-12-18T10:58:16;34;31;
55754;PMS5003;41674;52.290;-1.474;2022-12-18T11:00:38;44;37;
55754;PMS5003;41674;52.290;-1.474;2022-12-18T11:05:37;40;33;
55754;PMS5003;41674;52.290;-1.474;2022-12-18T11:08:11;49;38;
55754;PMS5003;41674;52.290;-1.474;2022-12-18T11:10:36;48;42;
55754;PMS5003;41674;52.290;-1.474;2022-12-18T11:13:09;44;38;
55754;PMS5003;41674;52.290;-1.474;2022-12-18T11:15:34;38;34;
55754;PMS5003;41674;52.290;-1.474;2022-12-18T11:18:04;44;36;
55754;PMS5003;41674;52.290;-1.474;2022-12-18T11:20:34;43;38;
55754;PMS5003;41674;52.290;-1.474;2022-12-18T11:23:03;44;34;
55754;PMS5003;41674;52.290;-1.474;2022-12-18T11:25:33;46;41;
55754;PMS5003;41674;52.290;-1.474;2022-12-18T11:28:03;39;32;
55754;PMS5003;41674;52.290;-1.474;2022-12-18T11:30:33;43;35;
55754;PMS5003;41674;52.290;-1.474;2022-12-18T11:33:03;39;38;
55754;PMS5003;41674;52.290;-1.474;2022-12-18T11:35:34;51;45;
55754;PMS5003;41674;52.290;-1.474;2022-12-18T11:38:02;41;35;
55754;PMS5003;41674;52.290;-1.474;2022-12-18T11:40:31;49;43;
55754;PMS5003;41674;52.290;-1.474;2022-12-18T11:43:06;50;42;
55754;PMS5003;41674;52.290;-1.474;2022-12-18T11:45:30;49;41;
55754;PMS5003;41674;52.290;-1.474;2022-12-18T11:48:00;46;36;
55754;PMS5003;41674;52.290;-1.474;2022-12-18T11:50:29;40;37;
55754;PMS5003;41674;52.290;-1.474;2022-12-18T11:52:57;43;36;
55754;PMS5003;41674;52.290;-1.474;2022-12-18T11:55:30;44;42;
55754;PMS5003;41674;52.290;-1.474;2022-12-18T11:57:58;45;40;
55754;PMS5003;41674;52.290;-1.474;2022-12-18T12:00:26;45;42;
55754;PMS5003;41674;52.290;-1.474;2022-12-18T12:03:02;43;36;
55754;PMS5003;41674;52.290;-1.474;2022-12-18T12:05:27;51;40;
55754;PMS5003;41674;52.290;-1.474;2022-12-18T12:07:54;45;42;
55754;PMS5003;41674;52.290;-1.474;2022-12-18T12:10:32;48;43;
55754;PMS5003;41674;52.290;-1.474;2022-12-18T12:12:56;45;40;
55754;PMS5003;41674;52.290;-1.474;2022-12-18T12:15:25;45;39;
55754;PMS5003;41674;52.290;-1.474;2022-12-18T12:17:53;49;44;
55754;PMS5003;41674;52.290;-1.474;2022-12-18T12:20:22;45;40;
55754;PMS5003;41674;52.290;-1.474;2022-12-18T12:22:52;44;38;
55754;PMS5003;41674;52.290;-1.474;2022-12-18T12:25:27;48;42;
55754;PMS5003;41674;52.290;-1.474;2022-12-18T12:27:51;46;41;
55754;PMS5003;41674;52.290;-1.474;2022-12-18T12:30:21;41;38;
55754;PMS5003;41674;52.290;-1.474;2022-12-18T12:32:58;51;49;
55754;PMS5003;41674;52.290;-1.474;2022-12-18T12:35:22;48;39;
55754;PMS5003;41674;52.290;-1.474;2022-12-18T12:37:49;44;39;
55754;PMS5003;41674;52.290;-1.474;2022-12-18T12:40:23;49;44;
55754;PMS5003;41674;52.290;-1.474;2022-12-18T12:42:47;50;41;
55754;PMS5003;41674;52.290;-1.474;2022-12-18T12:45:18;48;40;
55754;PMS5003;41674;52.290;-1.474;2022-12-18T12:47:46;50;42;
55754;PMS5003;41674;52.290;-1.474;2022-12-18T12:50:16;53;41;
55754;PMS5003;41674;52.290;-1.474;2022-12-18T12:52:45;55;48;
55754;PMS5003;41674;52.290;-1.474;2022-12-18T12:55:21;55;46;
55754;PMS5003;41674;52.290;-1.474;2022-12-18T12:57:45;42;39;
55754;PMS5003;41674;52.290;-1.474;2022-12-18T13:00:19;58;48;
55754;PMS5003;41674;52.290;-1.474;2022-12-18T13:02:43;49;44;
55754;PMS5003;41674;52.290;-1.474;2022-12-18T13:05:14;48;43;
55754;PMS5003;41674;52.290;-1.474;2022-12-18T13:07:41;49;41;
55754;PMS5003;41674;52.290;-1.474;2022-12-18T13:10:14;51;45;
55754;PMS5003;41674;52.290;-1.474;2022-12-18T13:15:13;60;50;
55754;PMS5003;41674;52.290;-1.474;2022-12-18T13:17:44;49;43;
55754;PMS5003;41674;52.290;-1.474;2022-12-18T13:20:09;48;39;
55754;PMS5003;41674;52.290;-1.474;2022-12-18T13:22:39;61;49;
55754;PMS5003;41674;52.290;-1.474;2022-12-18T13:27:51;53;46;
55754;PMS5003;41674;52.290;-1.474;2022-12-18T13:32:36;44;42;
55754;PMS5003;41674;52.290;-1.474;2022-12-18T13:42:38;50;41;
55754;PMS5003;41674;52.290;-1.474;2022-12-18T13:47:35;48;43;
55754;PMS5003;41674;52.290;-1.474;2022-12-18T13:50:10;52;42;
55754;PMS5003;41674;52.290;-1.474;2022-12-18T13:52:34;54;46;
55754;PMS5003;41674;52.290;-1.474;2022-12-18T13:57:33;45;41;
55754;PMS5003;41674;52.290;-1.474;2022-12-18T14:02:31;48;40;
55754;PMS5003;41674;52.290;-1.474;2022-12-18T14:05:00;46;39;
55754;PMS5003;41674;52.290;-1.474;2022-12-18T14:07:30;48;40;
55754;PMS5003;41674;52.290;-1.474;2022-12-18T14:10:00;49;42;
55754;PMS5003;41674;52.290;-1.474;2022-12-18T14:12:30;45;41;
55754;PMS5003;41674;52.290;-1.474;2022-12-18T14:14:58;46;39;
55754;PMS5003;41674;52.290;-1.474;2022-12-18T14:17:27;41;38;
55754;PMS5003;41674;52.290;-1.474;2022-12-18T14:19:57;39;36;
55754;PMS5003;41674;52.290;-1.474;2022-12-18T14:22:31;38;36;
55754;PMS5003;41674;52.290;-1.474;2022-12-18T14:25:06;40;36;
55754;PMS5003;41674;52.290;-1.474;2022-12-18T14:27:25;43;37;
55754;PMS5003;41674;52.290;-1.474;2022-12-18T14:29:55;38;35;
55754;PMS5003;41674;52.290;-1.474;2022-12-18T14:32:24;44;36;
55754;PMS5003;41674;52.290;-1.474;2022-12-18T14:34:54;37;34;
55754;PMS5003;41674;52.290;-1.474;2022-12-18T14:37:24;44;37;
55754;PMS5003;41674;52.290;-1.474;2022-12-18T14:39:53;36;32;
55754;PMS5003;41674;52.290;-1.474;2022-12-18T14:42:23;44;39;
55754;PMS5003;41674;52.290;-1.474;2022-12-18T14:44:52;40;32;
55754;PMS5003;41674;52.290;-1.474;2022-12-18T14:47:21;39;31;
55754;PMS5003;41674;52.290;-1.474;2022-12-18T14:49:50;44;31;
55754;PMS5003;41674;52.290;-1.474;2022-12-18T14:52:22;40;36;
55754;PMS5003;41674;52.290;-1.474;2022-12-18T14:54:49;36;34;
55754;PMS5003;41674;52.290;-1.474;2022-12-18T14:57:20;41;31;
55754;PMS5003;41674;52.290;-1.474;2022-12-18T14:59:48;42;34;
55754;PMS5003;41674;52.290;-1.474;2022-12-18T15:02:18;32;29;
55754;PMS5003;41674;52.290;-1.474;2022-12-18T15:04:47;38;32;
55754;PMS5003;41674;52.290;-1.474;2022-12-18T15:07:17;34;28;
55754;PMS5003;41674;52.290;-1.474;2022-12-18T15:12:28;31;27;
55754;PMS5003;41674;52.290;-1.474;2022-12-18T15:14:45;36;30;
55754;PMS5003;41674;52.290;-1.474;2022-12-18T15:17:16;32;26;
55754;PMS5003;41674;52.290;-1.474;2022-12-18T15:19:44;29;28;
55754;PMS5003;41674;52.290;-1.474;2022-12-18T15:22:17;29;24;
55754;PMS5003;41674;52.290;-1.474;2022-12-18T15:24:48;29;26;
55754;PMS5003;41674;52.290;-1.474;2022-12-18T15:29:42;29;23;
55754;PMS5003;41674;52.290;-1.474;2022-12-18T15:32:15;23;20;
55754;PMS5003;41674;52.290;-1.474;2022-12-18T15:37:21;25;21;
55754;PMS5003;41674;52.290;-1.474;2022-12-18T15:39:45;24;21;
55754;PMS5003;41674;52.290;-1.474;2022-12-18T15:42:15;21;21;
55754;PMS5003;41674;52.290;-1.474;2022-12-18T15:44:40;23;23;
55754;PMS5003;41674;52.290;-1.474;2022-12-18T15:47:10;22;21;
55754;PMS5003;41674;52.290;-1.474;2022-12-18T15:49:39;26;22;
55754;PMS5003;41674;52.290;-1.474;2022-12-18T15:52:08;22;20;
55754;PMS5003;41674;52.290;-1.474;2022-12-18T15:54:37;24;23;
55754;PMS5003;41674;52.290;-1.474;2022-12-18T15:57:08;22;17;
55754;PMS5003;41674;52.290;-1.474;2022-12-18T15:59:41;24;21;
55754;PMS5003;41674;52.290;-1.474;2022-12-18T16:02:13;24;20;
55754;PMS5003;41674;52.290;-1.474;2022-12-18T16:04:40;24;18;
55754;PMS5003;41674;52.290;-1.474;2022-12-18T16:07:07;21;19;
55754;PMS5003;41674;52.290;-1.474;2022-12-18T16:09:34;24;22;
55754;PMS5003;41674;52.290;-1.474;2022-12-18T16:12:04;20;18;
55754;PMS5003;41674;52.290;-1.474;2022-12-18T16:14:33;19;19;
55754;PMS5003;41674;52.290;-1.474;2022-12-18T16:17:05;20;16;
55754;PMS5003;41674;52.290;-1.474;2022-12-18T16:19:32;16;16;
55754;PMS5003;41674;52.290;-1.474;2022-12-18T16:22:01;20;18;
55754;PMS5003;41674;52.290;-1.474;2022-12-18T16:24:36;19;16;
55754;PMS5003;41674;52.290;-1.474;2022-12-18T16:27:00;24;22;
55754;PMS5003;41674;52.290;-1.474;2022-12-18T16:29:30;18;15;
55754;PMS5003;41674;52.290;-1.474;2022-12-18T16:32:00;20;17;
55754;PMS5003;41674;52.290;-1.474;2022-12-18T16:34:30;19;18;
55754;PMS5003;41674;52.290;-1.474;2022-12-18T16:36:59;16;15;
55754;PMS5003;41674;52.290;-1.474;2022-12-18T16:39:28;16;14;
55754;PMS5003;41674;52.290;-1.474;2022-12-18T16:41:57;20;19;
55754;PMS5003;41674;52.290;-1.474;2022-12-18T16:44:26;17;17;
55754;PMS5003;41674;52.290;-1.474;2022-12-18T16:46:56;18;17;
55754;PMS5003;41674;52.290;-1.474;2022-12-18T16:49:26;14;14;
55754;PMS5003;41674;52.290;-1.474;2022-12-18T16:52:01;19;17;